Time;durP1;ratioP1;P1;durP2;ratioP2;P2;SDS_P1;SDS_P2;PMS_P1;PMS_P2;Temp;Humidity;BMP_temperature;BMP_pressure;BME280_temperature;BME280_humidity;BME280_pressure;Samples;Min_cycle;Max_cycle;Signal;HPM_P1;HPM_P2
2022/01/28 00:00:49;;;;;;;10.02;6.00;;;;;;;;;;4962522;28;20046;-80
2022/01/28 00:03:16;;;;;;;;;;;;;;;;;;4977950;28;20070;-79
2022/01/28 00:05:42;;;;;;;7.82;5.25;;;;;;;;;;4963107;28;20539;-79
2022/01/28 00:08:08;;;;;;;8.68;5.72;;;;;;;;;;4966856;28;20026;-78
2022/01/28 00:10:35;;;;;;;8.63;4.85;;;;;;;;;;4983395;28;20031;-79
2022/01/28 00:13:36;;;;;;;7.85;5.00;;;;;;;;;;4968700;28;20032;-79
2022/01/28 00:38:00;;;;;;;8.25;4.00;;;;;;;;;;5052450;28;20044;-79
2022/01/28 00:39:50;;;;;;;7.13;4.18;;;;;;;;;;5038206;28;20186;-78
2022/01/28 00:42:17;;;;;;;6.82;4.05;;;;;;;;;;5029510;28;20561;-78
2022/01/28 00:44:43;;;;;;;7.13;3.85;;;;;;;;;;5048291;28;20077;-79
2022/01/28 00:47:09;;;;;;;6.65;3.80;;;;;;;;;;5026174;28;20033;-79
2022/01/28 00:49:36;;;;;;;6.90;4.05;;;;;;;;;;5044722;28;20391;-80
2022/01/28 00:52:02;;;;;;;6.97;4.43;;;;;;;;;;5044675;28;20053;-79
2022/01/28 00:54:28;;;;;;;6.95;3.72;;;;;;;;;;5057093;28;20051;-80
2022/01/28 00:56:54;;;;;;;7.97;4.45;;;;;;;;;;5054977;28;20064;-79
2022/01/28 00:59:20;;;;;;;5.95;3.50;;;;;;;;;;5046787;28;20029;-80
2022/01/28 01:01:46;;;;;;;6.82;4.00;;;;;;;;;;5066106;28;20065;-81
2022/01/28 01:04:13;;;;;;;7.35;4.13;;;;;;;;;;5064502;28;20557;-79
2022/01/28 01:06:39;;;;;;;6.18;3.33;;;;;;;;;;5063935;28;20028;-79
2022/01/28 01:09:05;;;;;;;6.57;3.95;;;;;;;;;;5052971;28;20080;-80
2022/01/28 01:11:32;;;;;;;7.32;3.63;;;;;;;;;;5045005;28;20055;-79
2022/01/28 01:14:01;;;;;;;6.22;3.65;;;;;;;;;;5061570;28;20029;-80
2022/01/28 01:17:00;;;;;;;6.15;3.50;;;;;;;;;;5064083;28;20033;-79
2022/01/28 01:19:22;;;;;;;6.22;4.18;;;;;;;;;;5062092;28;20433;-81
2022/01/28 01:21:54;;;;;;;6.50;3.30;;;;;;;;;;5060854;28;20055;-78
2022/01/28 01:24:23;;;;;;;6.55;3.58;;;;;;;;;;5025820;28;20029;-78
2022/01/28 01:26:49;;;;;;;6.30;3.65;;;;;;;;;;5052584;28;20084;-78
2022/01/28 01:29:18;;;;;;;5.63;3.22;;;;;;;;;;5033453;28;20059;-79
2022/01/28 01:31:45;;;;;;;5.68;3.28;;;;;;;;;;5027861;28;20313;-82
2022/01/28 01:34:15;;;;;;;5.45;3.03;;;;;;;;;;5025787;28;20029;-78
2022/01/28 01:36:42;;;;;;;6.80;3.42;;;;;;;;;;5030798;28;20040;-81
2022/01/28 01:39:15;;;;;;;5.22;3.03;;;;;;;;;;5062886;28;20029;-81
2022/01/28 01:41:55;;;;;;;5.28;2.85;;;;;;;;;;5063311;28;20021;-79
2022/01/28 01:52:21;;;;;;;5.25;2.80;;;;;;;;;;5067130;28;20091;-79
2022/01/28 01:54:50;;;;;;;5.22;2.90;;;;;;;;;;5065375;28;20426;-79
2022/01/28 01:57:17;;;;;;;4.95;3.05;;;;;;;;;;5066244;28;20121;-78
2022/01/28 01:59:43;;;;;;;5.10;2.92;;;;;;;;;;5066737;28;20021;-80
2022/01/28 02:02:10;;;;;;;5.32;3.25;;;;;;;;;;5049177;28;20112;-79
2022/01/28 02:04:37;;;;;;;5.47;2.50;;;;;;;;;;5029338;28;20511;-79
2022/01/28 02:07:04;;;;;;;5.78;2.83;;;;;;;;;;5027446;28;20028;-78
2022/01/28 02:09:30;;;;;;;5.20;2.42;;;;;;;;;;5047659;28;20563;-79
2022/01/28 02:11:56;;;;;;;5.43;2.30;;;;;;;;;;5046999;28;20128;-79
2022/01/28 02:14:22;;;;;;;5.07;2.63;;;;;;;;;;5062030;28;20032;-79
2022/01/28 02:16:48;;;;;;;5.60;2.45;;;;;;;;;;5066222;28;20044;-78
2022/01/28 02:19:14;;;;;;;5.10;2.63;;;;;;;;;;5050102;28;20030;-79
2022/01/28 02:21:52;;;;;;;4.53;2.53;;;;;;;;;;5060016;28;20051;-78
2022/01/28 02:24:25;;;;;;;4.80;2.58;;;;;;;;;;5033931;28;20083;-79
2022/01/28 02:26:51;;;;;;;;;;;;;;;;;;5062211;28;20021;-79
2022/01/28 02:29:26;;;;;;;5.13;2.95;;;;;;;;;;5050803;28;19905;-79
2022/01/28 02:31:53;;;;;;;5.80;3.38;;;;;;;;;;5051488;28;20030;-79
2022/01/28 02:34:19;;;;;;;5.75;2.67;;;;;;;;;;5061257;28;20325;-79
2022/01/28 02:36:45;;;;;;;6.07;3.08;;;;;;;;;;5047327;28;20032;-79
2022/01/28 02:39:12;;;;;;;6.25;3.17;;;;;;;;;;5031693;28;20435;-79
2022/01/28 02:41:42;;;;;;;5.22;2.85;;;;;;;;;;5056994;28;20093;-78
2022/01/28 02:44:24;;;;;;;5.30;2.95;;;;;;;;;;5049498;28;20025;-79
2022/01/28 02:46:57;;;;;;;5.32;3.05;;;;;;;;;;5045071;28;20021;-78
2022/01/28 02:49:26;;;;;;;5.13;2.83;;;;;;;;;;5066648;28;20021;-79
2022/01/28 02:51:53;;;;;;;5.90;3.22;;;;;;;;;;5069187;28;20021;-80
2022/01/28 02:54:19;;;;;;;5.65;3.28;;;;;;;;;;5040066;28;20028;-79
2022/01/28 02:56:49;;;;;;;5.10;2.83;;;;;;;;;;5046837;28;20096;-79
2022/01/28 02:59:16;;;;;;;5.70;2.85;;;;;;;;;;5048478;28;20114;-81
2022/01/28 03:01:42;;;;;;;5.97;3.25;;;;;;;;;;5039741;28;20052;-79
2022/01/28 03:04:10;;;;;;;3.92;2.15;;;;;;;;;;5048799;28;20033;-78
2022/01/28 03:06:36;;;;;;;5.20;2.88;;;;;;;;;;5038244;28;20025;-79
2022/01/28 03:09:13;;;;;;;5.60;2.67;;;;;;;;;;5032853;28;20032;-77
2022/01/28 03:16:51;;;;;;;5.22;2.75;;;;;;;;;;5052537;28;20028;-79
2022/01/28 03:19:21;;;;;;;5.47;2.90;;;;;;;;;;5063634;28;20039;-78
2022/01/28 03:21:57;;;;;;;5.05;2.58;;;;;;;;;;5063931;28;20100;-79
2022/01/28 03:24:26;;;;;;;5.13;2.40;;;;;;;;;;5047730;28;20044;-79
2022/01/28 03:26:56;;;;;;;4.93;2.58;;;;;;;;;;5026760;28;20022;-78
2022/01/28 03:29:22;;;;;;;4.88;2.33;;;;;;;;;;5038626;28;20033;-79
2022/01/28 03:31:48;;;;;;;4.80;2.50;;;;;;;;;;5062418;28;20033;-79
2022/01/28 03:34:14;;;;;;;4.65;2.60;;;;;;;;;;5048019;28;20726;-79
2022/01/28 03:36:40;;;;;;;4.88;2.83;;;;;;;;;;5044434;28;20025;-79
2022/01/28 03:39:09;;;;;;;4.68;2.50;;;;;;;;;;5057660;28;20037;-79
2022/01/28 03:41:38;;;;;;;5.32;2.45;;;;;;;;;;5063662;28;20033;-78
2022/01/28 03:44:05;;;;;;;4.68;2.35;;;;;;;;;;5048097;28;20033;-79
2022/01/28 03:46:31;;;;;;;5.07;2.83;;;;;;;;;;5051407;28;20029;-80
2022/01/28 03:48:58;;;;;;;5.20;2.30;;;;;;;;;;5033667;28;20036;-79
2022/01/28 03:51:24;;;;;;;5.00;2.75;;;;;;;;;;5059191;28;20032;-79
2022/01/28 03:53:50;;;;;;;5.90;2.72;;;;;;;;;;5064484;28;20059;-79
2022/01/28 03:56:16;;;;;;;6.28;3.22;;;;;;;;;;5049118;28;20037;-79
2022/01/28 03:58:44;;;;;;;5.45;3.15;;;;;;;;;;5033163;28;20029;-79
2022/01/28 04:01:20;;;;;;;5.35;2.90;;;;;;;;;;5047354;28;20052;-80
2022/01/28 04:04:21;;;;;;;5.07;2.50;;;;;;;;;;5064597;28;20071;-80
2022/01/28 04:12:05;;;;;;;5.28;2.63;;;;;;;;;;5054290;28;20494;-80
2022/01/28 04:14:47;;;;;;;4.53;2.25;;;;;;;;;;5057040;28;20025;-79
2022/01/28 04:17:21;;;;;;;5.07;2.35;;;;;;;;;;5037453;28;20051;-80
2022/01/28 04:19:48;;;;;;;4.30;2.25;;;;;;;;;;5045659;28;20045;-80
2022/01/28 04:22:14;;;;;;;5.00;2.53;;;;;;;;;;5058325;28;20036;-80
2022/01/28 04:24:40;;;;;;;4.38;2.00;;;;;;;;;;5046781;28;20049;-80
2022/01/28 04:27:06;;;;;;;4.10;2.20;;;;;;;;;;5046844;28;20021;-79
2022/01/28 04:29:32;;;;;;;4.13;2.03;;;;;;;;;;5047443;28;20032;-79
2022/01/28 04:31:58;;;;;;;3.45;1.58;;;;;;;;;;5038046;28;20030;-79
2022/01/28 04:34:25;;;;;;;4.10;1.63;;;;;;;;;;5045521;28;20043;-79
2022/01/28 04:37:30;;;;;;;3.95;1.60;;;;;;;;;;5048010;28;20510;-80
2022/01/28 04:39:51;;;;;;;5.38;2.38;;;;;;;;;;5044210;28;20087;-81
2022/01/28 05:00:39;;;;;;;5.45;2.75;;;;;;;;;;4984247;28;20527;-79
2022/01/28 05:03:28;;;;;;;5.82;2.92;;;;;;;;;;5003345;28;20069;-79
2022/01/28 05:27:43;;;;;;;5.30;2.70;;;;;;;;;;4998107;28;20037;-79
2022/01/28 05:30:09;;;;;;;6.80;3.17;;;;;;;;;;5051265;28;20043;-79
2022/01/28 05:32:35;;;;;;;6.35;3.45;;;;;;;;;;5035264;28;20072;-80
2022/01/28 05:35:01;;;;;;;5.32;3.10;;;;;;;;;;5059324;28;20029;-79
2022/01/28 05:37:27;;;;;;;6.18;3.63;;;;;;;;;;5068155;28;20040;-79
2022/01/28 05:39:53;;;;;;;6.10;3.55;;;;;;;;;;5050279;28;20025;-79
2022/01/28 05:42:19;;;;;;;5.65;3.67;;;;;;;;;;5069416;28;20029;-79
2022/01/28 05:44:45;;;;;;;6.78;3.55;;;;;;;;;;5065769;28;20048;-79
2022/01/28 05:47:15;;;;;;;6.20;3.72;;;;;;;;;;5067498;28;20029;-81
2022/01/28 05:49:42;;;;;;;6.68;3.20;;;;;;;;;;5031695;28;20030;-79
2022/01/28 05:52:10;;;;;;;5.65;3.30;;;;;;;;;;5048643;28;20022;-80
2022/01/28 05:54:36;;;;;;;6.28;3.15;;;;;;;;;;5032406;28;20026;-80
2022/01/28 05:57:02;;;;;;;5.53;2.90;;;;;;;;;;5046944;28;20108;-80
2022/01/28 05:59:28;;;;;;;5.88;3.03;;;;;;;;;;5059425;28;20025;-80
2022/01/28 06:01:54;;;;;;;6.18;3.35;;;;;;;;;;5059352;28;20044;-80
2022/01/28 06:04:21;;;;;;;6.85;3.65;;;;;;;;;;5062312;28;20050;-80
2022/01/28 06:06:47;;;;;;;6.75;3.60;;;;;;;;;;5065300;28;20020;-80
2022/01/28 06:09:13;;;;;;;6.82;3.65;;;;;;;;;;5063023;28;20033;-79
2022/01/28 06:11:40;;;;;;;7.28;3.70;;;;;;;;;;5055542;28;20028;-80
2022/01/28 06:14:06;;;;;;;6.88;3.97;;;;;;;;;;5057434;28;20034;-81
2022/01/28 06:16:32;;;;;;;7.28;4.35;;;;;;;;;;5045953;28;20086;-81
2022/01/28 06:18:58;;;;;;;7.72;4.18;;;;;;;;;;5060124;28;20028;-80
2022/01/28 06:21:25;;;;;;;6.15;2.95;;;;;;;;;;5061609;28;20025;-81
2022/01/28 06:23:52;;;;;;;4.85;2.45;;;;;;;;;;5042869;28;20482;-81
2022/01/28 06:26:19;;;;;;;5.30;2.95;;;;;;;;;;5058220;28;20035;-81
2022/01/28 06:28:45;;;;;;;6.75;3.40;;;;;;;;;;5060611;28;20060;-81
2022/01/28 06:31:11;;;;;;;6.47;3.08;;;;;;;;;;5063796;28;20025;-80
2022/01/28 06:33:37;;;;;;;5.65;2.85;;;;;;;;;;5047518;28;20025;-80
2022/01/28 06:36:03;;;;;;;4.38;2.40;;;;;;;;;;5063411;28;20509;-80
2022/01/28 06:38:30;;;;;;;5.55;2.50;;;;;;;;;;5063403;28;20021;-80
2022/01/28 06:40:56;;;;;;;4.95;2.33;;;;;;;;;;5044243;28;20032;-80
2022/01/28 06:43:22;;;;;;;5.13;2.17;;;;;;;;;;5063056;28;20021;-79
2022/01/28 06:45:48;;;;;;;4.22;1.77;;;;;;;;;;5044528;28;20120;-79
2022/01/28 06:48:16;;;;;;;4.22;1.70;;;;;;;;;;5059816;28;20067;-80
2022/01/28 06:50:44;;;;;;;4.90;1.70;;;;;;;;;;5043946;28;20032;-80
2022/01/28 06:53:11;;;;;;;3.70;1.45;;;;;;;;;;5025853;28;20041;-80
2022/01/28 06:55:39;;;;;;;4.95;2.00;;;;;;;;;;5063168;28;20049;-80
2022/01/28 06:58:07;;;;;;;5.07;2.60;;;;;;;;;;5065521;28;20029;-79
2022/01/28 07:00:37;;;;;;;5.65;2.30;;;;;;;;;;5035115;28;20047;-79
2022/01/28 07:03:06;;;;;;;5.28;1.88;;;;;;;;;;5049064;28;20033;-80
2022/01/28 07:05:32;;;;;;;4.80;2.03;;;;;;;;;;5019924;28;20036;-80
2022/01/28 07:07:58;;;;;;;4.47;2.00;;;;;;;;;;5040390;28;20030;-79
2022/01/28 07:10:26;;;;;;;3.85;1.90;;;;;;;;;;5025763;28;20036;-79
2022/01/28 07:12:54;;;;;;;4.45;1.50;;;;;;;;;;5016166;28;20034;-79
2022/01/28 07:15:23;;;;;;;4.13;1.50;;;;;;;;;;5027095;28;20029;-79
2022/01/28 07:17:49;;;;;;;3.45;1.70;;;;;;;;;;5042000;28;20025;-79
2022/01/28 07:20:17;;;;;;;3.58;1.50;;;;;;;;;;5033326;28;20168;-80
2022/01/28 07:22:43;;;;;;;4.18;1.70;;;;;;;;;;5033300;28;20399;-80
2022/01/28 07:25:09;;;;;;;3.92;1.75;;;;;;;;;;5011469;28;20472;-79
2022/01/28 07:27:35;;;;;;;3.75;1.52;;;;;;;;;;5026017;28;20030;-79
2022/01/28 07:30:02;;;;;;;4.07;1.70;;;;;;;;;;5005540;28;20022;-78
2022/01/28 07:32:28;;;;;;;3.97;1.60;;;;;;;;;;5023052;28;20025;-79
2022/01/28 07:34:54;;;;;;;4.25;1.80;;;;;;;;;;5042626;28;20029;-79
2022/01/28 07:37:20;;;;;;;4.18;1.80;;;;;;;;;;5041776;28;20021;-78
2022/01/28 07:39:46;;;;;;;5.00;2.20;;;;;;;;;;5041070;28;20468;-79
2022/01/28 07:42:12;;;;;;;5.15;2.15;;;;;;;;;;5021229;28;20018;-82
2022/01/28 07:44:38;;;;;;;4.35;2.00;;;;;;;;;;5034421;28;20022;-81
2022/01/28 07:47:05;;;;;;;3.75;1.80;;;;;;;;;;5023000;28;20065;-82
2022/01/28 07:49:31;;;;;;;4.32;1.95;;;;;;;;;;5014201;28;20030;-82
2022/01/28 07:51:57;;;;;;;3.60;1.60;;;;;;;;;;5036469;28;20492;-82
2022/01/28 07:54:23;;;;;;;3.50;1.60;;;;;;;;;;5022648;28;20030;-80
2022/01/28 07:56:53;;;;;;;2.95;1.40;;;;;;;;;;5004715;28;20038;-81
2022/01/28 07:59:19;;;;;;;3.13;1.15;;;;;;;;;;5010627;28;20027;-81
2022/01/28 08:01:46;;;;;;;3.25;1.40;;;;;;;;;;5026133;28;20407;-80
2022/01/28 08:04:12;;;;;;;2.67;1.10;;;;;;;;;;5027486;28;20061;-80
2022/01/28 08:06:38;;;;;;;2.88;1.00;;;;;;;;;;5034873;28;20041;-80
2022/01/28 08:09:04;;;;;;;2.50;1.05;;;;;;;;;;5025956;28;20030;-80
2022/01/28 08:11:30;;;;;;;2.53;0.90;;;;;;;;;;5040851;28;20025;-81
2022/01/28 08:13:56;;;;;;;2.22;1.02;;;;;;;;;;5018801;28;20036;-80
2022/01/28 08:16:22;;;;;;;4.45;1.10;;;;;;;;;;5019696;28;20036;-80
2022/01/28 08:18:48;;;;;;;2.63;1.00;;;;;;;;;;5026470;28;20092;-82
2022/01/28 08:21:18;;;;;;;4.20;1.20;;;;;;;;;;5016002;28;20034;-80
2022/01/28 08:23:44;;;;;;;1.70;0.70;;;;;;;;;;5042191;28;20041;-81
2022/01/28 08:26:11;;;;;;;2.25;0.70;;;;;;;;;;5023825;28;20062;-81
2022/01/28 08:28:41;;;;;;;1.38;0.60;;;;;;;;;;5042650;28;20081;-82
2022/01/28 08:31:07;;;;;;;2.20;0.80;;;;;;;;;;5024708;28;20036;-80
2022/01/28 08:33:33;;;;;;;1.92;0.77;;;;;;;;;;5021935;28;20391;-81
2022/01/28 08:36:01;;;;;;;2.33;0.80;;;;;;;;;;5026122;28;20518;-80
2022/01/28 08:38:35;;;;;;;2.05;0.70;;;;;;;;;;5040160;28;20029;-79
2022/01/28 08:41:01;;;;;;;2.30;0.80;;;;;;;;;;5046512;28;20338;-80
2022/01/28 08:43:27;;;;;;;2.22;0.75;;;;;;;;;;5009687;28;20516;-79
2022/01/28 08:45:53;;;;;;;1.95;0.77;;;;;;;;;;5006526;28;20526;-80
2022/01/28 08:48:19;;;;;;;3.15;0.98;;;;;;;;;;5023813;28;20053;-80
2022/01/28 08:50:45;;;;;;;2.28;0.80;;;;;;;;;;5038728;28;20524;-79
2022/01/28 08:53:11;;;;;;;2.47;0.63;;;;;;;;;;5040776;28;20029;-80
2022/01/28 08:55:38;;;;;;;3.78;0.73;;;;;;;;;;5021596;28;20037;-81
2022/01/28 08:58:05;;;;;;;2.50;0.80;;;;;;;;;;5035614;28;20597;-83
2022/01/28 09:00:31;;;;;;;2.13;0.70;;;;;;;;;;5012990;28;20033;-81
2022/01/28 09:02:58;;;;;;;3.17;1.00;;;;;;;;;;5060836;28;20056;-81
2022/01/28 09:05:24;;;;;;;2.00;0.88;;;;;;;;;;5029640;28;20025;-80
2022/01/28 09:07:51;;;;;;;3.13;1.13;;;;;;;;;;5053515;28;20026;-81
2022/01/28 09:10:24;;;;;;;2.75;1.02;;;;;;;;;;5040535;28;20353;-81
2022/01/28 09:15:32;;;;;;;3.95;1.00;;;;;;;;;;5060433;28;20025;-80
2022/01/28 09:17:58;;;;;;;2.65;0.70;;;;;;;;;;5060166;28;20033;-79
2022/01/28 09:20:24;;;;;;;1.45;0.65;;;;;;;;;;5029079;28;20052;-81
2022/01/28 09:22:50;;;;;;;7.10;2.03;;;;;;;;;;5048065;28;20029;-80
2022/01/28 09:25:17;;;;;;;2.67;0.80;;;;;;;;;;5051782;28;20513;-81
2022/01/28 09:27:43;;;;;;;2.72;0.88;;;;;;;;;;5045186;28;20391;-81
2022/01/28 09:30:09;;;;;;;4.50;1.13;;;;;;;;;;5041621;28;20029;-81
2022/01/28 09:32:35;;;;;;;2.58;0.80;;;;;;;;;;5061808;28;20104;-81
2022/01/28 09:35:02;;;;;;;4.18;1.00;;;;;;;;;;5040183;28;20056;-80
2022/01/28 09:37:28;;;;;;;4.55;1.35;;;;;;;;;;5053659;28;20075;-80
2022/01/28 09:39:56;;;;;;;3.47;1.08;;;;;;;;;;5060946;28;20459;-80
2022/01/28 09:42:27;;;;;;;2.28;0.70;;;;;;;;;;5043979;28;20017;-78
2022/01/28 09:44:54;;;;;;;9.75;2.45;;;;;;;;;;5044858;28;20032;-80
2022/01/28 09:47:20;;;;;;;2.90;0.70;;;;;;;;;;5056229;28;20033;-80
2022/01/28 09:49:46;;;;;;;2.42;0.70;;;;;;;;;;5058078;28;20025;-82
2022/01/28 09:52:13;;;;;;;3.60;0.90;;;;;;;;;;5026722;28;20056;-82
2022/01/28 09:54:43;;;;;;;2.80;0.75;;;;;;;;;;5046506;28;20024;-80
2022/01/28 09:57:09;;;;;;;1.60;0.70;;;;;;;;;;5043830;28;20052;-80
2022/01/28 09:59:36;;;;;;;4.38;1.20;;;;;;;;;;5041494;28;20124;-80
2022/01/28 10:02:02;;;;;;;3.35;1.00;;;;;;;;;;5013552;28;20042;-80
2022/01/28 10:04:29;;;;;;;2.03;0.70;;;;;;;;;;5023207;28;20022;-81
2022/01/28 10:06:56;;;;;;;3.45;1.00;;;;;;;;;;5015983;28;20017;-79
2022/01/28 10:09:23;;;;;;;4.43;0.93;;;;;;;;;;5045008;28;20372;-78
2022/01/28 10:11:53;;;;;;;3.47;0.90;;;;;;;;;;5044094;28;20021;-82
2022/01/28 10:14:23;;;;;;;3.45;0.93;;;;;;;;;;5025669;28;20028;-80
2022/01/28 10:17:02;;;;;;;3.28;0.90;;;;;;;;;;5033647;28;20049;-83
2022/01/28 10:19:38;;;;;;;3.72;1.27;;;;;;;;;;5033968;28;20030;-82
2022/01/28 10:22:16;;;;;;;4.53;1.48;;;;;;;;;;5033310;28;20025;-82
2022/01/28 10:24:42;;;;;;;3.28;1.20;;;;;;;;;;5043340;28;20029;-81
2022/01/28 10:27:09;;;;;;;2.00;0.70;;;;;;;;;;5043956;28;20018;-80
2022/01/28 10:29:35;;;;;;;3.53;1.10;;;;;;;;;;5042675;28;20430;-79
2022/01/28 10:32:03;;;;;;;3.05;0.90;;;;;;;;;;5037070;28;20548;-83
2022/01/28 10:34:48;;;;;;;2.22;0.90;;;;;;;;;;5028163;28;20033;-81
2022/01/28 10:37:21;;;;;;;2.10;0.80;;;;;;;;;;5009355;28;20040;-81
2022/01/28 10:40:03;;;;;;;3.08;1.08;;;;;;;;;;5031423;28;20022;-82
2022/01/28 10:42:29;;;;;;;4.53;1.00;;;;;;;;;;5041756;28;20045;-83
2022/01/28 10:44:57;;;;;;;4.10;1.30;;;;;;;;;;5022947;28;20041;-82
2022/01/28 10:47:42;;;;;;;5.38;2.22;;;;;;;;;;5022229;28;20506;-82
2022/01/28 10:50:24;;;;;;;3.97;1.60;;;;;;;;;;5009266;28;20022;-83
2022/01/28 10:53:07;;;;;;;5.22;2.10;;;;;;;;;;5039167;28;20036;-81
2022/01/28 10:55:33;;;;;;;;;;;;;;;;;;5026944;28;20053;-81
2022/01/28 10:58:00;;;;;;;2.08;0.85;;;;;;;;;;5041639;28;19905;-82
2022/01/28 11:00:27;;;;;;;3.42;1.02;;;;;;;;;;5047643;28;20037;-82
2022/01/28 11:02:54;;;;;;;2.47;1.00;;;;;;;;;;5014595;28;20041;-82
2022/01/28 11:05:21;;;;;;;1.88;0.90;;;;;;;;;;5029723;28;20040;-81
2022/01/28 11:07:48;;;;;;;3.17;1.05;;;;;;;;;;5025444;28;20078;-82
2022/01/28 11:10:14;;;;;;;3.05;1.05;;;;;;;;;;5009514;28;20388;-83
2022/01/28 11:12:41;;;;;;;2.90;1.10;;;;;;;;;;5008127;28;20045;-80
2022/01/28 11:15:07;;;;;;;4.60;1.42;;;;;;;;;;5036857;28;20036;-83
2022/01/28 11:17:36;;;;;;;2.80;0.80;;;;;;;;;;5017048;28;20029;-82
2022/01/28 11:20:02;;;;;;;2.95;0.90;;;;;;;;;;5019771;28;20567;-83
2022/01/28 11:22:28;;;;;;;2.05;0.80;;;;;;;;;;5035404;28;20053;-82
2022/01/28 11:25:13;;;;;;;1.63;0.65;;;;;;;;;;5033856;28;20649;-81
2022/01/28 11:27:40;;;;;;;6.75;1.90;;;;;;;;;;5025893;28;20022;-84
2022/01/28 11:30:28;;;;;;;3.30;1.17;;;;;;;;;;5019208;28;20040;-82
2022/01/28 11:33:11;;;;;;;3.05;1.10;;;;;;;;;;5031886;28;20060;-82
2022/01/28 11:35:37;;;;;;;6.75;2.17;;;;;;;;;;5044508;28;20117;-81
2022/01/28 11:38:27;;;;;;;3.38;0.90;;;;;;;;;;5017392;28;20026;-81
2022/01/28 11:40:55;;;;;;;3.67;1.13;;;;;;;;;;5023141;28;20030;-80
2022/01/28 11:43:22;;;;;;;3.75;0.93;;;;;;;;;;5018860;28;20438;-81
2022/01/28 11:46:04;;;;;;;3.05;0.95;;;;;;;;;;5019447;28;20025;-80
2022/01/28 11:48:50;;;;;;;2.92;1.10;;;;;;;;;;5035418;28;20029;-82
2022/01/28 11:51:23;;;;;;;2.25;0.82;;;;;;;;;;5032238;28;20033;-81
2022/01/28 11:53:56;;;;;;;6.40;1.17;;;;;;;;;;5034873;28;20041;-84
2022/01/28 11:56:24;;;;;;;2.72;0.90;;;;;;;;;;5016536;28;20479;-81
2022/01/28 11:58:54;;;;;;;4.38;1.30;;;;;;;;;;5044002;28;20025;-82
2022/01/28 12:01:26;;;;;;;5.70;1.17;;;;;;;;;;5023335;28;20045;-82
2022/01/28 12:04:12;;;;;;;2.15;0.70;;;;;;;;;;5017317;28;20026;-84
2022/01/28 12:06:39;;;;;;;3.88;1.48;;;;;;;;;;5026001;28;20033;-81
2022/01/28 12:09:08;;;;;;;5.00;1.05;;;;;;;;;;5033513;28;20030;-82
2022/01/28 12:11:44;;;;;;;3.38;0.88;;;;;;;;;;5006267;28;20392;-82
2022/01/28 12:14:13;;;;;;;3.05;1.00;;;;;;;;;;5024050;28;20033;-81
2022/01/28 12:16:45;;;;;;;2.10;0.90;;;;;;;;;;5008694;28;20037;-82
2022/01/28 12:19:18;;;;;;;3.28;1.90;;;;;;;;;;5006874;28;20033;-82
2022/01/28 12:22:09;;;;;;;3.03;0.93;;;;;;;;;;5034944;28;20036;-83
2022/01/28 12:24:37;;;;;;;3.63;1.13;;;;;;;;;;5006896;28;20373;-83
2022/01/28 12:27:05;;;;;;;2.30;0.90;;;;;;;;;;5006455;28;20022;-83
2022/01/28 12:29:32;;;;;;;2.50;0.73;;;;;;;;;;5012309;28;20025;-84
2022/01/28 12:31:59;;;;;;;3.90;1.00;;;;;;;;;;5033765;28;20034;-81
2022/01/28 12:34:26;;;;;;;3.78;1.17;;;;;;;;;;5024420;28;20269;-82
2022/01/28 12:36:52;;;;;;;3.83;0.90;;;;;;;;;;5007172;28;20030;-83
2022/01/28 12:39:31;;;;;;;2.95;0.88;;;;;;;;;;5007609;28;20470;-81
2022/01/28 12:42:06;;;;;;;3.30;1.15;;;;;;;;;;5009619;28;20025;-82
2022/01/28 12:44:33;;;;;;;2.53;0.90;;;;;;;;;;5008705;28;20033;-81
2022/01/28 12:47:00;;;;;;;2.17;0.90;;;;;;;;;;5025685;28;20033;-82
2022/01/28 12:49:29;;;;;;;3.05;1.10;;;;;;;;;;5038307;28;20037;-81
2022/01/28 12:51:56;;;;;;;4.10;1.10;;;;;;;;;;5033742;28;20030;-82
2022/01/28 12:54:33;;;;;;;3.80;1.05;;;;;;;;;;5006225;28;20049;-83
2022/01/28 12:56:59;;;;;;;3.97;0.93;;;;;;;;;;5024484;28;20400;-82
2022/01/28 12:59:26;;;;;;;4.55;1.10;;;;;;;;;;5025222;28;20049;-82
2022/01/28 13:01:52;;;;;;;3.97;0.90;;;;;;;;;;5039143;28;20455;-83
2022/01/28 13:04:21;;;;;;;3.20;1.20;;;;;;;;;;5024823;28;20080;-82
2022/01/28 13:09:17;;;;;;;3.28;1.00;;;;;;;;;;5043231;28;20089;-82
2022/01/28 13:11:44;;;;;;;3.42;1.30;;;;;;;;;;5025616;28;20040;-84
2022/01/28 13:14:11;;;;;;;2.88;1.10;;;;;;;;;;5024506;28;20060;-80
2022/01/28 13:16:45;;;;;;;2.78;1.00;;;;;;;;;;5057923;28;20075;-81
2022/01/28 13:19:12;;;;;;;3.03;1.00;;;;;;;;;;5044500;28;20036;-83
2022/01/28 13:21:39;;;;;;;3.72;1.00;;;;;;;;;;5031861;28;20024;-84
2022/01/28 13:24:05;;;;;;;3.95;1.20;;;;;;;;;;5025716;28;20044;-84
2022/01/28 13:26:32;;;;;;;4.35;1.10;;;;;;;;;;5063220;28;20040;-82
2022/01/28 13:29:05;;;;;;;3.30;1.35;;;;;;;;;;5061983;28;20021;-82
2022/01/28 13:31:31;;;;;;;4.75;1.70;;;;;;;;;;5043296;28;20107;-81
2022/01/28 13:33:59;;;;;;;4.53;1.52;;;;;;;;;;5062233;28;20036;-82
2022/01/28 13:36:26;;;;;;;3.72;1.40;;;;;;;;;;5045375;28;20032;-81
2022/01/28 13:38:52;;;;;;;5.38;1.60;;;;;;;;;;5046182;28;20028;-84
2022/01/28 13:41:23;;;;;;;3.70;1.52;;;;;;;;;;5066194;28;20108;-81
2022/01/28 13:43:50;;;;;;;4.53;1.48;;;;;;;;;;5049155;28;20028;-82
2022/01/28 13:46:16;;;;;;;5.75;1.40;;;;;;;;;;5055955;28;20025;-83
2022/01/28 13:48:46;;;;;;;3.17;1.02;;;;;;;;;;5056058;28;20033;-80
2022/01/28 13:51:21;;;;;;;5.93;1.85;;;;;;;;;;5035693;28;20120;-82
2022/01/28 13:56:32;;;;;;;3.80;1.50;;;;;;;;;;5064815;28;20035;-82
2022/01/28 13:58:59;;;;;;;3.83;1.13;;;;;;;;;;5036579;28;20029;-82
2022/01/28 14:01:27;;;;;;;2.92;1.13;;;;;;;;;;5036940;28;20235;-83
2022/01/28 14:03:57;;;;;;;3.33;0.95;;;;;;;;;;5013334;28;20029;-81
2022/01/28 14:06:26;;;;;;;3.53;1.10;;;;;;;;;;5045582;28;20110;-81
2022/01/28 14:08:54;;;;;;;3.55;1.13;;;;;;;;;;5047812;28;20072;-80
2022/01/28 14:11:23;;;;;;;2.75;1.00;;;;;;;;;;5020139;28;20026;-80
2022/01/28 14:14:11;;;;;;;5.05;1.08;;;;;;;;;;5021085;28;20032;-82
2022/01/28 14:16:37;;;;;;;4.50;1.20;;;;;;;;;;5026752;28;20059;-80
2022/01/28 14:19:03;;;;;;;3.28;1.20;;;;;;;;;;5034731;28;20479;-80
2022/01/28 14:21:29;;;;;;;3.35;1.20;;;;;;;;;;5044221;28;20369;-81
2022/01/28 14:23:55;;;;;;;7.32;1.30;;;;;;;;;;5042815;28;20155;-81
2022/01/28 14:26:22;;;;;;;3.17;1.02;;;;;;;;;;5033447;28;20426;-79
2022/01/28 14:29:21;;;;;;;3.45;0.90;;;;;;;;;;5045976;28;20025;-82
2022/01/28 14:31:34;;;;;;;3.03;1.05;;;;;;;;;;5045707;28;20514;-83
2022/01/28 14:34:02;;;;;;;4.28;1.15;;;;;;;;;;5045441;28;20067;-80
2022/01/28 14:36:29;;;;;;;2.78;0.95;;;;;;;;;;5044337;28;20022;-82
2022/01/28 14:38:55;;;;;;;2.90;1.05;;;;;;;;;;5019771;28;20085;-79
2022/01/28 14:41:22;;;;;;;4.43;1.15;;;;;;;;;;5021727;28;20049;-81
2022/01/28 14:43:48;;;;;;;2.40;1.00;;;;;;;;;;5031096;28;20031;-81
2022/01/28 14:46:14;;;;;;;6.10;1.30;;;;;;;;;;5049544;28;20052;-81
2022/01/28 14:48:41;;;;;;;5.05;1.23;;;;;;;;;;5018515;28;20032;-82
2022/01/28 14:51:10;;;;;;;4.90;1.90;;;;;;;;;;5007649;28;20156;-81
2022/01/28 14:53:36;;;;;;;4.43;1.48;;;;;;;;;;5034575;28;20120;-83
2022/01/28 14:56:02;;;;;;;3.58;1.50;;;;;;;;;;5046522;28;20377;-82
2022/01/28 14:58:28;;;;;;;3.25;1.33;;;;;;;;;;5040306;28;20030;-83
2022/01/28 15:00:54;;;;;;;6.00;2.15;;;;;;;;;;5026738;28;20033;-82
2022/01/28 15:03:20;;;;;;;4.30;1.50;;;;;;;;;;5026478;28;20362;-83
2022/01/28 15:05:46;;;;;;;4.72;1.40;;;;;;;;;;5042213;28;20018;-82
2022/01/28 15:08:13;;;;;;;4.53;1.17;;;;;;;;;;5042165;28;20017;-84
2022/01/28 15:10:40;;;;;;;2.53;1.00;;;;;;;;;;5037204;28;20041;-84
2022/01/28 15:13:08;;;;;;;3.28;1.20;;;;;;;;;;5042919;28;20383;-83
2022/01/28 15:15:34;;;;;;;6.25;1.50;;;;;;;;;;5032178;28;20034;-82
2022/01/28 15:18:00;;;;;;;7.55;1.63;;;;;;;;;;5023825;28;20392;-83
2022/01/28 15:20:28;;;;;;;4.45;1.45;;;;;;;;;;5026312;28;20049;-81
2022/01/28 15:22:54;;;;;;;4.43;1.35;;;;;;;;;;5041379;28;20036;-81
2022/01/28 15:25:20;;;;;;;3.78;1.40;;;;;;;;;;5026654;28;20034;-82
2022/01/28 15:27:47;;;;;;;3.60;1.45;;;;;;;;;;5013425;28;20105;-80
2022/01/28 15:38:09;;;;;;;3.45;1.25;;;;;;;;;;5044552;28;20414;-80
2022/01/28 15:40:35;;;;;;;5.30;1.38;;;;;;;;;;5026124;28;20029;-81
2022/01/28 15:43:01;;;;;;;4.18;1.35;;;;;;;;;;5024847;28;20144;-84
2022/01/28 15:45:32;;;;;;;4.75;1.88;;;;;;;;;;5038998;28;20025;-81
2022/01/28 15:47:59;;;;;;;6.40;1.98;;;;;;;;;;5025339;28;20069;-83
2022/01/28 15:50:29;;;;;;;5.97;2.10;;;;;;;;;;5024494;28;20033;-83
2022/01/28 15:52:55;;;;;;;6.57;2.88;;;;;;;;;;5024721;28;20025;-82
2022/01/28 15:55:22;;;;;;;5.65;2.10;;;;;;;;;;5021889;28;20038;-83
2022/01/28 15:57:48;;;;;;;5.28;1.75;;;;;;;;;;5005101;28;20055;-81
2022/01/28 16:00:14;;;;;;;5.95;1.65;;;;;;;;;;5005815;28;20041;-82
2022/01/28 16:02:41;;;;;;;3.40;1.40;;;;;;;;;;5028284;28;20048;-81
2022/01/28 16:05:07;;;;;;;2.90;1.30;;;;;;;;;;5045537;28;20086;-82
2022/01/28 16:07:35;;;;;;;4.05;1.40;;;;;;;;;;5046875;28;20021;-81
2022/01/28 16:10:06;;;;;;;3.72;1.45;;;;;;;;;;5041439;28;20064;-81
2022/01/28 16:15:21;;;;;;;4.63;1.42;;;;;;;;;;5045691;28;20545;-82
2022/01/28 16:17:48;;;;;;;4.28;1.30;;;;;;;;;;5027286;28;20093;-83
2022/01/28 16:20:14;;;;;;;4.68;1.65;;;;;;;;;;5046861;28;20033;-83
2022/01/28 16:22:40;;;;;;;4.85;1.50;;;;;;;;;;5045762;28;20048;-83
2022/01/28 16:25:07;;;;;;;3.95;1.70;;;;;;;;;;5059895;28;20055;-83
2022/01/28 16:27:33;;;;;;;4.28;1.75;;;;;;;;;;5048351;28;20025;-84
2022/01/28 16:29:59;;;;;;;4.82;1.60;;;;;;;;;;5064373;28;20466;-83